MyMeetScores TOP 100 TOP TEAMS UPCOMING MEETS COMPLETED MEETS LATEST MEETS ADD SCORES SUPPORT SHOP
Get a Bag with All Your Scores Shop@
MyMeetScores
 
Rebecca Ithal, Gym Kinetics Gymnastics - MyMeetScores.com
Rebecca Ithal
Gym Kinetics Gymnastics
Personal Bests
Level Vault Bars Beam Floor AA
3 9.475 9.425 9.425 9.650 37.675
4 8.700 9.200 9.325 8.900 35.825
5 8.400 8.650 8.925 8.500 33.650
Meet Scores
Date Meet Team Session Level Division Vault Bars Beam Floor AA
2021-02-26 Kinetic Classic 2021 Gym Kinetics Gymnastics 11 5 Older 8.350 18T 8.650 15 8.550 15 7.750 19 33.300 16
2021-02-12 Harley Meet Women - Midwest Twisters Gym Kinetics Gymnastics O01 5 Sr B 8.100 13 8.400 8 8.925 3 8.200 9T 33.625 6
2021-01-21 King Arthur Invitational Gym Kinetics Gymnastics 6 5 SR 8.300 14 8.500 10 8.675 10 8.025 15 33.500 12
2021-01-14 2021 Bravo Classic Gym Kinetics Gymnastics 9 5 Sr 8.400 15T 8.250 10 8.500 10 0.000 16 25.150 16
2020-12-18 Aspire Classic Gym Kinetics Gymnastics 2 5 Older 8.400 19 8.100 17 8.650 12T 8.500 19T 33.650 17
2020-03-06 Illinois Level 4 State Championships Gym Kinetics Gymnastics 7 4 Sr F 8.625 17 9.125 7 9.300 9T 8.750 13T 35.800 9
2020-02-21 Kinetic Classic Gym Kinetics Gymnastics 06 4 Older 8.600 40T 9.200 35T 9.125 41T 8.775 57 35.700 40
2020-01-31 Chow's Challenge Gym Kinetics Gymnastics B2 4 Sr B 8.500 10 9.000 6 9.150 5 8.700 9 35.350 8
2020-01-17 2020 Bravo Classic Gym Kinetics Gymnastics 5B 4 Sr 8.550 18T 9.200 8T 9.175 5T 8.900 13 35.825 11T
2020-01-10 Leenda's Island Adventure Gym Kinetics Gymnastics PG5 4 12 & Over 8.650 4 9.100 3 9.000 2T 8.725 7 35.475 2
2019-12-20 Aspire Classic - 2019 Gym Kinetics Gymnastics 8A 4 Older 8.350 17T 8.750 14 8.700 21 8.650 13 34.450 16
2019-12-06 Ultimate Wish Classic Gym Kinetics Gymnastics 2 4 Sr C 8.400 12 8.850 5 8.800 9 8.300 7 34.350 9
2019-03-22 Illinois Gymnastics State Championships Gym Kinetics Gymnastics 10 4 Sr E 8.700 17T 9.200 11T 9.250 10 8.550 27 35.700 15
2019-03-01 NGCD Academy's 2019 Flip'r Invitational Gym Kinetics Gymnastics 10 4 Jr B 8.700 9 8.800 10 8.950 10T 8.650 10 35.100 9
2019-02-23 Kinetic Classic 2019 Gym Kinetics Gymnastics 1 4 Older 8.400 28T 9.000 19T 8.925 20T 8.250 37T 34.575 30T
2019-02-08 Midwest Twisters Harley Meet Womens Gym Kinetics Gymnastics T10 4 12 yrs.+ 8.175 10 8.000 10 8.425 10 7.700 10 32.300 10
2019-01-18 2019 Bravo Classic Gym Kinetics Gymnastics 3B 4 Sr 8.225 19 8.450 15 8.800 14 8.125 19 33.600 14
2019-01-11 St Jude Benefit Meet Gym Kinetics Gymnastics 6A 4 Sr B 8.550 13 8.000 12 9.300 4 8.700 11 34.550 10
2018-12-14 2018 Aspire Classic Gym Kinetics Gymnastics 6A 4 Older 8.550 23 8.700 20 9.325 6T 8.650 21 35.225 20T
2018-05-03 Illinois USA Gymnastics Level 3 State Championships Gym Kinetics Gymnastics 6 3 Sr E 9.475 11T 9.425 9 9.250 13T 9.525 5 37.675 8T
2018-02-23 Kinetic Classic Gym Kinetics Gymnastics 4 3 Older 9.450 5T 9.200 39T 9.425 15 9.450 20T 37.525 10
2018-02-09 Arizona Sunrays Classic Rock Invitational Gym Kinetics Gymnastics R02 3 SrC 9.400 3 8.900 6T 9.050 5 9.650 3T 37.000 4
2018-02-03 Midwest Games Gym Kinetics Gymnastics 4 3 SR B 8.900 11 8.950 7 8.450 13 9.475 1 35.775 11
2018-01-19 2018 Bravo Classic Gym Kinetics Gymnastics 5B 3 Sr 9.350 5T 8.975 11 8.400 16 8.925 10T 35.650 12
2017-12-15 2017 Aspire Classic Gym Kinetics Gymnastics 9A 3 Older 9.400 2 8.950 8 9.150 2T 9.125 10T 36.625 3
2017-02-24 Kinetic Classic Gym Kinetics Gymnastics 4,5,6,7 3 All Ages 8.750 99T 8.325 90T 8.375 90T 8.300 108 33.750 102T
2016-12-02 Ultimate Wish Classic 3D Gymnastics and Cheer Inc 11 3 Sr B 8.200 21 7.000 21 8.500 13 8.400 19 32.100 21